createdAt,value
2018-03-26T21:41:57.466Z,58.30
2018-03-26T21:44:23.857Z,58.70
2018-03-26T21:46:50.416Z,58.80
2018-03-26T21:49:16.888Z,59.10
2018-03-26T21:51:44.450Z,59.50
2018-03-26T21:54:11.578Z,59.60
2018-03-26T21:56:37.959Z,59.50
2018-03-26T21:59:04.297Z,59.50
2018-03-26T22:01:30.901Z,59.50
2018-03-26T22:03:58.031Z,60.00
2018-03-26T22:06:24.459Z,60.00
2018-03-26T22:08:50.855Z,60.80
2018-03-26T22:11:17.289Z,61.40
2018-03-26T22:13:43.628Z,61.70
2018-03-26T22:16:10.171Z,62.10
2018-03-26T22:18:37.416Z,62.70
2018-03-26T22:21:03.835Z,63.00
2018-03-26T22:23:30.201Z,62.90
2018-03-26T22:25:56.628Z,62.70
2018-03-26T22:28:23.247Z,62.70
2018-03-26T22:30:49.652Z,62.80
2018-03-26T22:33:16.004Z,63.00
2018-03-26T22:35:42.368Z,63.30
2018-03-26T22:38:08.884Z,64.10
2018-03-26T22:40:35.208Z,64.30
2018-03-26T22:43:01.532Z,64.70
2018-03-26T22:45:28.144Z,65.20
2018-03-26T22:47:54.569Z,65.40
2018-03-26T22:50:21.673Z,66.10
2018-03-26T22:52:48.017Z,66.10
2018-03-26T22:55:14.367Z,66.60
2018-03-26T22:57:41.487Z,67.20
2018-03-26T23:00:11.376Z,67.00
2018-03-26T23:02:37.764Z,67.50
2018-03-26T23:05:04.959Z,67.70
2018-03-26T23:07:31.353Z,67.60
2018-03-26T23:09:58.543Z,68.20
2018-03-26T23:12:24.929Z,68.10
2018-03-26T23:14:52.039Z,68.60
2018-03-26T23:17:19.278Z,68.80
2018-03-26T23:19:45.700Z,68.80
2018-03-26T23:22:12.135Z,69.10
2018-03-26T23:24:38.778Z,69.30
2018-03-26T23:27:05.153Z,69.40
2018-03-26T23:29:32.247Z,70.60
2018-03-26T23:31:58.861Z,69.80
2018-03-26T23:34:25.208Z,70.10
2018-03-26T23:36:51.673Z,70.20
2018-03-26T23:39:18.037Z,70.30
2018-03-26T23:41:45.111Z,70.50
2018-03-26T23:44:11.492Z,70.40
2018-03-26T23:46:37.873Z,71.00
2018-03-26T23:49:04.242Z,71.10
2018-03-26T23:51:30.608Z,71.40
2018-03-26T23:53:57.737Z,71.80
2018-03-26T23:56:24.147Z,71.60
2018-03-26T23:58:50.550Z,72.00
